KBDE

Baudette International Airport

Baudette, Minnesota, USA
METAR KBDE 162153Z AUTO 00000KT 10SM CLR M17/M23 A3026 RMK AO2 SLP285 T11671233
Observed Flight Rules
Jan-16 @ 21:53 UTC (48 minutes ago) Visual Flight Rules
Visibility Clouds
10 miles
  • Clear skies
Temperatures Readings
Current -17°C / 1°F
Dewpoint -23°C / -9°F
Humidity 60%
Altimeter 30.26" Hg
Pressure 1028.5 hPa
Elevation 329
METAR KBDE 162153Z AUTO 00000KT 10SM CLR M17/M23 A3026 RMK AO2 SLP285 T11671233
Observed Flight Rules
Jan-16 @ 21:53 UTC
(48 minutes ago)
VFR
Clouds
  • Clear skies
Temperature Dewpoint
-17°C / 1°F -23°C / -9°F
Humidity Altimeter Pressure
60% 30.26" Hg 1028.5 hPa